Nyk Orpheus — 7JDN — position and weather

sailwx.info

Track history (hours):
 
Tides and Currents Weather Stations Pressure Air Temp Water Temp Dewpoint Dewpoint Depression Visibility Wind Speed Wind Dir Waves Ship Positions

Nyk Orpheus

Last reported at 2017-Aug-21 22:29 UTC. Time now 2017-Aug-22 09:04 UTC.
Position N 37°51' E 008°37'.

Length 336 m; draft 12.5 m.

Type: Ship (hazmat cat A). MMSI: 432657000.

Date/timePositionNaut miles runAvg speedWind from/ knotsBaromVisibWave heightAir tempDewpointWater temp
2017-Aug-21 22:29N 37°51' E 008°37'26519.8
2017-Aug-21 09:05N 37°25' E 003°04'219.4
2017-Aug-21 09:00N 37°25' E 003°02'1119.3
2017-Aug-21 08:26N 37°22' E 002°49'2219.2
2017-Aug-21 07:17N 37°17' E 002°22'1619.1
2017-Aug-21 06:28N 37°13' E 002°03'918.8
2017-Aug-21 06:00N 37°11' E 001°52'4718.3
2017-Aug-21 03:26N 36°59' E 000°55'1019.2
2017-Aug-21 02:55N 36°57' E 000°43'1219.0
2017-Aug-21 02:19N 36°54' E 000°29'818.9
2017-Aug-21 01:53N 36°52' E 000°19'718.8
2017-Aug-21 01:31N 36°51' E 000°11'1018.8
2017-Aug-21 01:00N 36°48' W 000°01'918.4
2017-Aug-21 00:30N 36°45' W 000°12'918.2
2017-Aug-21 00:01N 36°43' W 000°22'918.3
2017-Aug-20 23:30N 36°41' W 000°33'918.3
2017-Aug-20 23:00N 36°38' W 000°44'918.2
2017-Aug-20 22:30N 36°36' W 000°56'918.3
2017-Aug-20 22:00N 36°34' W 001°07'19419.8
2017-Aug-20 12:12N 36°01' W 005°04'421.6
2017-Aug-20 12:00N 36°01' W 005°10'1020.7
2017-Aug-20 11:30N 35°59' W 005°22'1019.9
2017-Aug-20 11:00N 35°56' W 005°34'2018.1
2017-Aug-20 09:53N 35°55' W 005°59'12518.8
2017-Aug-20 03:13N 36°23' W 008°30'419.7
2017-Aug-20 03:00N 36°24' W 008°35'1019.1
2017-Aug-20 02:30N 36°27' W 008°47'1019.1
2017-Aug-20 02:00N 36°29' W 008°58'1019.2
2017-Aug-20 01:30N 36°32' W 009°10'918.6
2017-Aug-20 01:00N 36°36' W 009°20'1019.8
2017-Aug-20 00:30N 36°43' W 009°29'1019.5
2017-Aug-20 00:00N 36°51' W 009°35'1019.6
2017-Aug-19 23:30N 37°00' W 009°39'1019.3
2017-Aug-19 23:00N 37°10' W 009°42'1019.6
2017-Aug-19 22:30N 37°19' W 009°44'1019.8
2017-Aug-19 22:00N 37°29' W 009°48'1019.4
2017-Aug-19 21:30N 37°38' W 009°50'918.7
2017-Aug-19 21:00N 37°47' W 009°53'919.0
2017-Aug-19 20:30N 37°57' W 009°56'1019.2
2017-Aug-19 20:00N 38°06' W 009°58'1019.2
2017-Aug-19 19:30N 38°16' W 010°01'1019.0
2017-Aug-19 19:00N 38°25' W 010°04'1019.4
2017-Aug-19 18:30N 38°34' W 010°06'1019.5
2017-Aug-19 18:00N 38°44' W 010°07'1019.9
2017-Aug-19 17:30N 38°54' W 010°08'1019.9
2017-Aug-19 17:00N 39°04' W 010°08'1019.6
2017-Aug-19 16:30N 39°14' W 010°08'1019.5
2017-Aug-19 16:00N 39°23' W 010°08'1020.3
2017-Aug-19 15:30N 39°34' W 010°08'1020.2
2017-Aug-19 15:01N 39°44' W 010°08'2020.1
2017-Aug-19 14:00N 40°04' W 010°08'1019.9
2017-Aug-19 13:30N 40°14' W 010°08'1020.0
2017-Aug-19 13:00N 40°24' W 010°08'1219.8
2017-Aug-19 12:24N 40°36' W 010°09'819.9
2017-Aug-19 12:00N 40°44' W 010°09'1120.0
2017-Aug-19 11:28N 40°54' W 010°09'920.0
2017-Aug-19 11:00N 41°04' W 010°09'1019.8
2017-Aug-19 10:30N 41°14' W 010°09'7720.1
2017-Aug-19 06:42N 42°30' W 010°06'47519.3
2017-Aug-18 06:08N 49°22' W 004°26'420.0
2017-Aug-18 05:55N 49°24' W 004°21'919.7
2017-Aug-18 05:28N 49°30' W 004°09'919.3
2017-Aug-18 05:00N 49°34' W 003°58'1018.7
2017-Aug-18 04:28N 49°39' W 003°44'818.3
2017-Aug-18 04:00N 49°44' W 003°34'917.9
2017-Aug-18 03:30N 49°48' W 003°21'917.6
2017-Aug-18 03:00N 49°53' W 003°10'917.7
2017-Aug-18 02:30N 49°57' W 002°58'917.8
2017-Aug-18 02:00N 50°00' W 002°45'918.0
2017-Aug-18 01:29N 50°02' W 002°30'2018.6
2017-Aug-18 00:25N 50°02' W 001°59'819.5
2017-Aug-18 00:00N 49°58' W 001°49'1019.5
2017-Aug-17 23:30N 49°54' W 001°35'1020.0
2017-Aug-17 23:01N 49°51' W 001°21'1020.8
2017-Aug-17 22:30N 49°47' W 001°06'1020.5
2017-Aug-17 22:01N 49°43' W 000°51'1820.0
2017-Aug-17 21:06N 49°36' W 000°25'219.8
2017-Aug-17 20:59N 49°35' W 000°22'918.2
2017-Aug-17 20:30N 49°32' W 000°09'612.6
2017-Aug-17 20:00N 49°30' W 000°00'611.4
2017-Aug-17 19:30N 49°28' E 000°08'1 2.5
2017-Aug-17 18:59N 49°27' E 000°10'0 0.0
2017-Aug-17 18:29N 49°27' E 000°10'0 0.0
2017-Aug-17 17:59N 49°27' E 000°10'0 0.0
2017-Aug-17 17:29N 49°27' E 000°10'0 0.0
2017-Aug-17 16:59N 49°27' E 000°10'0 0.0
2017-Aug-17 16:29N 49°27' E 000°10'0 0.0
2017-Aug-17 15:59N 49°27' E 000°10'0 0.0
2017-Aug-17 15:29N 49°27' E 000°10'0 0.0
2017-Aug-17 14:59N 49°27' E 000°10'0 0.0
2017-Aug-17 14:29N 49°27' E 000°10'0 0.0
2017-Aug-17 13:59N 49°27' E 000°10'0 0.0
2017-Aug-17 13:29N 49°27' E 000°10'0 0.0
2017-Aug-17 12:59N 49°27' E 000°10'0 0.0
2017-Aug-17 12:29N 49°27' E 000°10'0 0.0
2017-Aug-17 11:59N 49°27' E 000°10'0 0.0
2017-Aug-17 11:29N 49°27' E 000°10'0 0.0
2017-Aug-17 10:59N 49°27' E 000°10'0 0.0
2017-Aug-17 10:29N 49°27' E 000°10'0 0.0
2017-Aug-17 09:59N 49°27' E 000°10'0 0.0
2017-Aug-17 09:29N 49°27' E 000°10'0 0.0
2017-Aug-17 08:59N 49°27' E 000°10'0 0.0
2017-Aug-17 08:29N 49°27' E 000°10'0 0.0
2017-Aug-17 07:59N 49°27' E 000°10'0 0.0
2017-Aug-17 07:29N 49°27' E 000°10'0 0.0
2017-Aug-17 06:59N 49°27' E 000°10'0 0.0
2017-Aug-17 06:29N 49°27' E 000°10'0 0.0
2017-Aug-17 05:59N 49°27' E 000°10'0 0.0
2017-Aug-17 05:29N 49°27' E 000°10'0 0.0
2017-Aug-17 04:59N 49°27' E 000°10'0 0.0
2017-Aug-17 04:29N 49°27' E 000°10'0 0.0
2017-Aug-17 03:59N 49°27' E 000°10'0 0.0
2017-Aug-17 03:29N 49°27' E 000°10'0 0.0
2017-Aug-17 02:59N 49°27' E 000°10'0 0.0
2017-Aug-17 02:29N 49°27' E 000°10'0 0.0
2017-Aug-17 01:59N 49°27' E 000°10'0 0.0
2017-Aug-17 01:29N 49°27' E 000°10'0 0.0
2017-Aug-17 00:59N 49°27' E 000°10'0 0.0
2017-Aug-17 00:29N 49°27' E 000°10'0 0.0
2017-Aug-16 23:59N 49°27' E 000°10'0 0.0
2017-Aug-16 23:29N 49°27' E 000°10'0 0.0
2017-Aug-16 22:59N 49°27' E 000°10'0 0.0
2017-Aug-16 22:29N 49°27' E 000°10'0 0.0
2017-Aug-16 21:59N 49°27' E 000°10'0 0.0
2017-Aug-16 21:29N 49°27' E 000°10'0 0.0
2017-Aug-16 20:59N 49°27' E 000°10'0 0.0
2017-Aug-16 20:29N 49°27' E 000°10'0 0.1
2017-Aug-16 19:59N 49°27' E 000°10'0 0.0
2017-Aug-16 19:29N 49°27' E 000°10'0 0.0
2017-Aug-16 18:59N 49°27' E 000°10'0 0.0
2017-Aug-16 18:29N 49°27' E 000°10'0 0.0
2017-Aug-16 17:59N 49°27' E 000°10'0 0.0
2017-Aug-16 17:29N 49°27' E 000°10'0 0.0
2017-Aug-16 16:59N 49°27' E 000°10'0 0.0
2017-Aug-16 16:29N 49°27' E 000°10'0 0.0
2017-Aug-16 15:59N 49°27' E 000°10'0 0.0
2017-Aug-16 15:29N 49°27' E 000°10'0 0.0
2017-Aug-16 14:59N 49°27' E 000°10'0 0.0
2017-Aug-16 14:29N 49°27' E 000°10'0 0.0
2017-Aug-16 13:59N 49°27' E 000°10'0 0.0
2017-Aug-16 13:29N 49°27' E 000°10'0 0.0
2017-Aug-16 12:59N 49°27' E 000°10'0 0.0
2017-Aug-16 12:29N 49°27' E 000°10'0 0.0
2017-Aug-16 11:59N 49°27' E 000°10'0 0.0
2017-Aug-16 11:29N 49°27' E 000°10'0 0.0
2017-Aug-16 10:59N 49°27' E 000°10'0 0.0
2017-Aug-16 10:29N 49°27' E 000°10'0 0.0
2017-Aug-16 09:59N 49°27' E 000°10'0 0.1
2017-Aug-16 09:29N 49°27' E 000°10'0 0.0
2017-Aug-16 08:59N 49°27' E 000°10'0 0.0
2017-Aug-16 08:29N 49°27' E 000°10'0 0.1
2017-Aug-16 07:59N 49°27' E 000°10'0 0.0
2017-Aug-16 07:29N 49°27' E 000°10'0 0.0
2017-Aug-16 06:59N 49°27' E 000°10'0 0.0
2017-Aug-16 06:29N 49°27' E 000°10'0 0.0
2017-Aug-16 05:59N 49°27' E 000°10'0 0.0
2017-Aug-16 05:29N 49°27' E 000°10'0 0.0
2017-Aug-16 04:59N 49°27' E 000°10'0 0.0
2017-Aug-16 04:29N 49°27' E 000°10'0 0.0
2017-Aug-16 03:59N 49°27' E 000°10'0 0.0
2017-Aug-16 03:29N 49°27' E 000°10'0 0.0
2017-Aug-16 02:59N 49°27' E 000°10'0 0.0
2017-Aug-16 02:29N 49°27' E 000°10'0 0.0
2017-Aug-16 01:59N 49°27' E 000°10'0 0.0
2017-Aug-16 01:29N 49°27' E 000°10'0 0.0
2017-Aug-16 00:59N 49°27' E 000°10'0 0.0
2017-Aug-16 00:29N 49°27' E 000°10'0 0.0
2017-Aug-15 23:59N 49°27' E 000°10'0 0.0
2017-Aug-15 23:29N 49°27' E 000°10'0 0.0
2017-Aug-15 22:59N 49°27' E 000°10'0 0.1
2017-Aug-15 22:30N 49°27' E 000°10'1 2.8
2017-Aug-15 22:00N 49°28' E 000°08'4 8.4
2017-Aug-15 21:30N 49°30' E 000°02'3 5.9
2017-Aug-15 21:00N 49°31' W 000°02'3 5.8
2017-Aug-15 20:30N 49°32' W 000°06'4 8.5
2017-Aug-15 20:00N 49°33' W 000°13'4 8.8
2017-Aug-15 19:30N 49°34' W 000°19'510.4
2017-Aug-15 19:00N 49°36' W 000°27'510.0
2017-Aug-15 18:29N 49°39' W 000°33'1 1.8
2017-Aug-15 18:00N 49°40' W 000°33'1 1.3
2017-Aug-15 17:30N 49°40' W 000°32'3 5.5
2017-Aug-15 16:59N 49°43' W 000°32'613.3
2017-Aug-15 16:31N 49°49' W 000°35'713.1
2017-Aug-15 15:58N 49°56' W 000°36'813.1
2017-Aug-15 15:21N 50°04' W 000°38'1013.4
2017-Aug-15 14:37N 50°13' W 000°44'112.1
2017-Aug-15 14:30N 50°15' W 000°44'813.0
2017-Aug-15 13:53N 50°22' W 000°48'513.3
2017-Aug-15 13:30N 50°27' W 000°51'713.3
2017-Aug-15 13:00N 50°33' W 000°56'611.1
2017-Aug-15 12:31N 50°38' W 000°57'4 8.9
2017-Aug-15 12:01N 50°43' W 000°58'713.8
2017-Aug-15 11:31N 50°45' W 001°08'714.3
2017-Aug-15 11:01N 50°47' W 001°19'4 8.1
2017-Aug-15 10:30N 50°51' W 001°21'4 8.3
2017-Aug-15 10:00N 50°54' W 001°25'1 2.4
2017-Aug-15 09:30N 50°54' W 001°27'1 1.2
2017-Aug-15 09:00N 50°55' W 001°28'0 0.0
2017-Aug-15 07:42N 50°55' W 001°28'0 0.0
2017-Aug-15 07:24N 50°55' W 001°28'0 0.0
2017-Aug-15 05:57N 50°55' W 001°28'0 0.0
2017-Aug-15 05:30N 50°55' W 001°28'0 0.0
2017-Aug-15 05:00N 50°55' W 001°28'0 0.0
2017-Aug-15 04:24N 50°55' W 001°28'0 0.0
2017-Aug-15 04:00N 50°55' W 001°28'0 0.0
2017-Aug-15 03:30N 50°55' W 001°28'0 0.0
2017-Aug-15 01:45N 50°55' W 001°28'0 0.1
2017-Aug-15 01:30N 50°55' W 001°28'0 0.0
2017-Aug-15 01:00N 50°55' W 001°28'0 0.0
2017-Aug-15 00:30N 50°55' W 001°28'0 0.0
2017-Aug-14 23:54N 50°55' W 001°28'0 0.0
2017-Aug-14 23:30N 50°55' W 001°28'0 0.1
2017-Aug-14 23:00N 50°55' W 001°28'0 0.1
2017-Aug-14 22:30N 50°55' W 001°28'0 0.0
2017-Aug-14 21:54N 50°55' W 001°28'0 0.1
2017-Aug-14 21:30N 50°55' W 001°28'0 0.0
2017-Aug-14 20:57N 50°55' W 001°28'0 0.0
2017-Aug-14 20:30N 50°55' W 001°28'0 0.0
2017-Aug-14 20:00N 50°55' W 001°28'0 0.0
2017-Aug-14 19:27N 50°55' W 001°28'0 0.0
2017-Aug-14 18:00N 50°55' W 001°28'0 0.0
2017-Aug-14 15:36N 50°55' W 001°28'0 0.0
2017-Aug-14 15:30N 50°55' W 001°28'0 0.0
2017-Aug-14 15:00N 50°55' W 001°28'0 0.0
2017-Aug-14 14:27N 50°55' W 001°28'0 0.0
2017-Aug-14 14:00N 50°55' W 001°28'0 0.0
2017-Aug-14 13:30N 50°55' W 001°28'0 0.0
2017-Aug-14 13:00N 50°55' W 001°28'0 0.0
2017-Aug-14 12:30N 50°55' W 001°28'0 0.0
2017-Aug-14 12:00N 50°55' W 001°28'0 0.0
2017-Aug-14 11:27N 50°55' W 001°28'0 0.0
2017-Aug-14 11:00N 50°55' W 001°28'0 0.0
2017-Aug-14 10:30N 50°55' W 001°28'0 0.0
2017-Aug-14 10:00N 50°55' W 001°28'0 0.0
2017-Aug-14 09:30N 50°55' W 001°28'0 0.0
2017-Aug-14 09:00N 50°55' W 001°28'0 0.0
2017-Aug-14 08:30N 50°55' W 001°28'0 0.0
2017-Aug-14 05:36N 50°55' W 001°28'0 0.0
2017-Aug-14 05:15N 50°55' W 001°28'0 0.0
2017-Aug-14 01:45N 50°55' W 001°28'0 0.0
2017-Aug-14 01:30N 50°55' W 001°28'0 0.0
2017-Aug-14 00:12N 50°55' W 001°28'0 0.0
2017-Aug-14 00:00N 50°55' W 001°28'0 0.0
2017-Aug-13 23:30N 50°55' W 001°28'0 0.0
2017-Aug-13 23:00N 50°55' W 001°28'0 0.0
2017-Aug-13 22:30N 50°55' W 001°28'0 0.0
2017-Aug-13 22:00N 50°55' W 001°28'0 0.0
2017-Aug-13 20:24N 50°55' W 001°28'0 1.3
2017-Aug-13 20:00N 50°54' W 001°27'2 3.3
2017-Aug-13 19:30N 50°54' W 001°25'4 7.5
2017-Aug-13 19:00N 50°51' W 001°21'4 7.7
2017-Aug-13 18:30N 50°47' W 001°19'510.6
2017-Aug-13 18:01N 50°46' W 001°11'713.7
2017-Aug-13 17:30N 50°43' W 001°01'510.6
2017-Aug-13 17:00N 50°38' W 000°57'4 7.0
2017-Aug-13 16:30N 50°35' W 000°57'4 8.2
2017-Aug-13 16:00N 50°31' W 000°54'714.7
2017-Aug-13 15:30N 50°31' W 000°42'816.6
2017-Aug-13 15:01N 50°31' W 000°29'714.9
2017-Aug-13 14:30N 50°31' W 000°18'816.1
2017-Aug-13 14:00N 50°32' W 000°05'816.8
2017-Aug-13 13:31N 50°33' E 000°08'816.4
2017-Aug-13 13:00N 50°35' E 000°21'816.3
2017-Aug-13 12:30N 50°38' E 000°33'815.9
2017-Aug-13 12:00N 50°41' E 000°44'815.3
2017-Aug-13 11:30N 50°45' E 000°55'815.2
2017-Aug-13 11:00N 50°49' E 001°05'714.9
2017-Aug-13 10:30N 50°53' E 001°14'815.5
2017-Aug-13 10:00N 50°59' E 001°23'815.5
2017-Aug-13 09:30N 51°04' E 001°32'815.7
2017-Aug-13 09:00N 51°10' E 001°41'815.6
2017-Aug-13 08:31N 51°15' E 001°49'815.9
2017-Aug-13 08:00N 51°22' E 001°56'815.8
2017-Aug-13 07:31N 51°29' E 002°02'815.4
2017-Aug-13 07:00N 51°35' E 002°10'815.3
2017-Aug-13 06:30N 51°41' E 002°18'3714.4
2017-Aug-13 03:57N 52°09' E 002°56'8216.4
2017-Aug-12 22:59N 53°11' E 004°23'815.7
2017-Aug-12 22:30N 53°18' E 004°29'1814.8
2017-Aug-12 21:19N 53°31' E 004°49'814.8
2017-Aug-12 20:44N 53°35' E 005°02'314.4
2017-Aug-12 20:30N 53°36' E 005°08'714.4
2017-Aug-12 20:00N 53°38' E 005°19'714.7
2017-Aug-12 19:30N 53°40' E 005°31'9316.3
2017-Aug-12 13:48N 54°01' E 008°04'414.6
2017-Aug-12 13:30N 54°00' E 008°12'612.1
2017-Aug-12 13:00N 53°60' E 008°22'713.0
2017-Aug-12 12:30N 53°58' E 008°33'612.2
2017-Aug-12 12:01N 53°55' E 008°41'511.0
2017-Aug-12 11:30N 53°51' E 008°47'714.6
2017-Aug-12 11:00N 53°51' E 008°60'612.1
2017-Aug-12 10:30N 53°53' E 009°10'713.3
2017-Aug-12 10:00N 53°51' E 009°20'815.3
2017-Aug-12 09:30N 53°44' E 009°27'612.4
2017-Aug-12 09:01N 53°38' E 009°31'713.2
2017-Aug-12 08:30N 53°34' E 009°40'611.8
2017-Aug-12 08:01N 53°33' E 009°50'4 8.2
2017-Aug-12 07:30N 53°32' E 009°56'1 2.5
2017-Aug-12 07:00N 53°31' E 009°56'0 0.0
2017-Aug-12 06:30N 53°31' E 009°56'0 0.0
2017-Aug-12 06:00N 53°31' E 009°56'0 0.0
2017-Aug-12 05:30N 53°31' E 009°56'0 0.0
2017-Aug-12 05:00N 53°31' E 009°56'0 0.0
2017-Aug-12 04:30N 53°31' E 009°56'0 0.0
2017-Aug-12 04:00N 53°31' E 009°56'0 0.0
2017-Aug-12 03:30N 53°31' E 009°56'0 0.0
2017-Aug-12 03:00N 53°31' E 009°56'0 0.0
2017-Aug-12 02:30N 53°31' E 009°56'0 0.0
2017-Aug-12 02:00N 53°31' E 009°56'0 0.0
2017-Aug-12 01:30N 53°31' E 009°56'0 0.0
2017-Aug-12 01:00N 53°31' E 009°56'0 0.0
2017-Aug-12 00:30N 53°31' E 009°56'0 0.0
2017-Aug-12 00:00N 53°31' E 009°56'0 0.0
2017-Aug-11 23:30N 53°31' E 009°56'0 0.0
2017-Aug-11 23:00N 53°31' E 009°56'0 0.0
2017-Aug-11 22:30N 53°31' E 009°56'  
Track history (hours):
 
Tides and Currents Weather Stations Pressure Air Temp Water Temp Dewpoint Dewpoint Depression Visibility Wind Speed Wind Dir Waves Ship Positions

Nyk Orpheus

Last reported at 2017-Aug-21 22:29 UTC. Time now 2017-Aug-22 09:04 UTC.
Position N 37°51' E 008°37'.

Length 336 m; draft 12.5 m.

Type: Ship (hazmat cat A). MMSI: 432657000.

Date/timePositionNaut miles runAvg speedWind from/ knotsBaromVisibWave heightAir tempDewpointWater temp
2017-Aug-21 22:29N 37°51' E 008°37'26519.8
2017-Aug-21 09:05N 37°25' E 003°04'219.4
2017-Aug-21 09:00N 37°25' E 003°02'1119.3
2017-Aug-21 08:26N 37°22' E 002°49'2219.2
2017-Aug-21 07:17N 37°17' E 002°22'1619.1
2017-Aug-21 06:28N 37°13' E 002°03'918.8
2017-Aug-21 06:00N 37°11' E 001°52'4718.3
2017-Aug-21 03:26N 36°59' E 000°55'1019.2
2017-Aug-21 02:55N 36°57' E 000°43'1219.0
2017-Aug-21 02:19N 36°54' E 000°29'818.9
2017-Aug-21 01:53N 36°52' E 000°19'718.8
2017-Aug-21 01:31N 36°51' E 000°11'1018.8
2017-Aug-21 01:00N 36°48' W 000°01'918.4
2017-Aug-21 00:30N 36°45' W 000°12'918.2
2017-Aug-21 00:01N 36°43' W 000°22'918.3
2017-Aug-20 23:30N 36°41' W 000°33'918.3
2017-Aug-20 23:00N 36°38' W 000°44'918.2
2017-Aug-20 22:30N 36°36' W 000°56'918.3
2017-Aug-20 22:00N 36°34' W 001°07'19419.8
2017-Aug-20 12:12N 36°01' W 005°04'421.6
2017-Aug-20 12:00N 36°01' W 005°10'1020.7
2017-Aug-20 11:30N 35°59' W 005°22'1019.9
2017-Aug-20 11:00N 35°56' W 005°34'2018.1
2017-Aug-20 09:53N 35°55' W 005°59'12518.8
2017-Aug-20 03:13N 36°23' W 008°30'419.7
2017-Aug-20 03:00N 36°24' W 008°35'1019.1
2017-Aug-20 02:30N 36°27' W 008°47'1019.1
2017-Aug-20 02:00N 36°29' W 008°58'1019.2
2017-Aug-20 01:30N 36°32' W 009°10'918.6
2017-Aug-20 01:00N 36°36' W 009°20'1019.8
2017-Aug-20 00:30N 36°43' W 009°29'1019.5
2017-Aug-20 00:00N 36°51' W 009°35'1019.6
2017-Aug-19 23:30N 37°00' W 009°39'1019.3
2017-Aug-19 23:00N 37°10' W 009°42'1019.6
2017-Aug-19 22:30N 37°19' W 009°44'1019.8
2017-Aug-19 22:00N 37°29' W 009°48'1019.4
2017-Aug-19 21:30N 37°38' W 009°50'918.7
2017-Aug-19 21:00N 37°47' W 009°53'919.0
2017-Aug-19 20:30N 37°57' W 009°56'1019.2
2017-Aug-19 20:00N 38°06' W 009°58'1019.2
2017-Aug-19 19:30N 38°16' W 010°01'1019.0
2017-Aug-19 19:00N 38°25' W 010°04'1019.4
2017-Aug-19 18:30N 38°34' W 010°06'1019.5
2017-Aug-19 18:00N 38°44' W 010°07'1019.9
2017-Aug-19 17:30N 38°54' W 010°08'1019.9
2017-Aug-19 17:00N 39°04' W 010°08'1019.6
2017-Aug-19 16:30N 39°14' W 010°08'1019.5
2017-Aug-19 16:00N 39°23' W 010°08'1020.3
2017-Aug-19 15:30N 39°34' W 010°08'1020.2
2017-Aug-19 15:01N 39°44' W 010°08'2020.1
2017-Aug-19 14:00N 40°04' W 010°08'1019.9
2017-Aug-19 13:30N 40°14' W 010°08'1020.0
2017-Aug-19 13:00N 40°24' W 010°08'1219.8
2017-Aug-19 12:24N 40°36' W 010°09'819.9
2017-Aug-19 12:00N 40°44' W 010°09'1120.0
2017-Aug-19 11:28N 40°54' W 010°09'920.0
2017-Aug-19 11:00N 41°04' W 010°09'1019.8
2017-Aug-19 10:30N 41°14' W 010°09'7720.1
2017-Aug-19 06:42N 42°30' W 010°06'47519.3
2017-Aug-18 06:08N 49°22' W 004°26'420.0
2017-Aug-18 05:55N 49°24' W 004°21'919.7
2017-Aug-18 05:28N 49°30' W 004°09'919.3
2017-Aug-18 05:00N 49°34' W 003°58'1018.7
2017-Aug-18 04:28N 49°39' W 003°44'818.3
2017-Aug-18 04:00N 49°44' W 003°34'917.9
2017-Aug-18 03:30N 49°48' W 003°21'917.6
2017-Aug-18 03:00N 49°53' W 003°10'917.7
2017-Aug-18 02:30N 49°57' W 002°58'917.8
2017-Aug-18 02:00N 50°00' W 002°45'918.0
2017-Aug-18 01:29N 50°02' W 002°30'2018.6
2017-Aug-18 00:25N 50°02' W 001°59'819.5
2017-Aug-18 00:00N 49°58' W 001°49'1019.5
2017-Aug-17 23:30N 49°54' W 001°35'1020.0
2017-Aug-17 23:01N 49°51' W 001°21'1020.8
2017-Aug-17 22:30N 49°47' W 001°06'1020.5
2017-Aug-17 22:01N 49°43' W 000°51'1820.0
2017-Aug-17 21:06N 49°36' W 000°25'219.8
2017-Aug-17 20:59N 49°35' W 000°22'918.2
2017-Aug-17 20:30N 49°32' W 000°09'612.6
2017-Aug-17 20:00N 49°30' W 000°00'611.4
2017-Aug-17 19:30N 49°28' E 000°08'1 2.5
2017-Aug-17 18:59N 49°27' E 000°10'0 0.0
2017-Aug-17 18:29N 49°27' E 000°10'0 0.0
2017-Aug-17 17:59N 49°27' E 000°10'0 0.0
2017-Aug-17 17:29N 49°27' E 000°10'0 0.0
2017-Aug-17 16:59N 49°27' E 000°10'0 0.0
2017-Aug-17 16:29N 49°27' E 000°10'0 0.0
2017-Aug-17 15:59N 49°27' E 000°10'0 0.0
2017-Aug-17 15:29N 49°27' E 000°10'0 0.0
2017-Aug-17 14:59N 49°27' E 000°10'0 0.0
2017-Aug-17 14:29N 49°27' E 000°10'0 0.0
2017-Aug-17 13:59N 49°27' E 000°10'0 0.0
2017-Aug-17 13:29N 49°27' E 000°10'0 0.0
2017-Aug-17 12:59N 49°27' E 000°10'0 0.0
2017-Aug-17 12:29N 49°27' E 000°10'0 0.0
2017-Aug-17 11:59N 49°27' E 000°10'0 0.0
2017-Aug-17 11:29N 49°27' E 000°10'0 0.0
2017-Aug-17 10:59N 49°27' E 000°10'0 0.0
2017-Aug-17 10:29N 49°27' E 000°10'0 0.0
2017-Aug-17 09:59N 49°27' E 000°10'0 0.0
2017-Aug-17 09:29N 49°27' E 000°10'0 0.0
2017-Aug-17 08:59N 49°27' E 000°10'0 0.0
2017-Aug-17 08:29N 49°27' E 000°10'0 0.0
2017-Aug-17 07:59N 49°27' E 000°10'0 0.0
2017-Aug-17 07:29N 49°27' E 000°10'0 0.0
2017-Aug-17 06:59N 49°27' E 000°10'0 0.0
2017-Aug-17 06:29N 49°27' E 000°10'0 0.0
2017-Aug-17 05:59N 49°27' E 000°10'0 0.0
2017-Aug-17 05:29N 49°27' E 000°10'0 0.0
2017-Aug-17 04:59N 49°27' E 000°10'0 0.0
2017-Aug-17 04:29N 49°27' E 000°10'0 0.0
2017-Aug-17 03:59N 49°27' E 000°10'0 0.0
2017-Aug-17 03:29N 49°27' E 000°10'0 0.0
2017-Aug-17 02:59N 49°27' E 000°10'0 0.0
2017-Aug-17 02:29N 49°27' E 000°10'0 0.0
2017-Aug-17 01:59N 49°27' E 000°10'0 0.0
2017-Aug-17 01:29N 49°27' E 000°10'0 0.0
2017-Aug-17 00:59N 49°27' E 000°10'0 0.0
2017-Aug-17 00:29N 49°27' E 000°10'0 0.0
2017-Aug-16 23:59N 49°27' E 000°10'0 0.0
2017-Aug-16 23:29N 49°27' E 000°10'0 0.0
2017-Aug-16 22:59N 49°27' E 000°10'0 0.0
2017-Aug-16 22:29N 49°27' E 000°10'0 0.0
2017-Aug-16 21:59N 49°27' E 000°10'0 0.0
2017-Aug-16 21:29N 49°27' E 000°10'0 0.0
2017-Aug-16 20:59N 49°27' E 000°10'0 0.0
2017-Aug-16 20:29N 49°27' E 000°10'0 0.1
2017-Aug-16 19:59N 49°27' E 000°10'0 0.0
2017-Aug-16 19:29N 49°27' E 000°10'0 0.0
2017-Aug-16 18:59N 49°27' E 000°10'0 0.0
2017-Aug-16 18:29N 49°27' E 000°10'0 0.0
2017-Aug-16 17:59N 49°27' E 000°10'0 0.0
2017-Aug-16 17:29N 49°27' E 000°10'0 0.0
2017-Aug-16 16:59N 49°27' E 000°10'0 0.0
2017-Aug-16 16:29N 49°27' E 000°10'0 0.0
2017-Aug-16 15:59N 49°27' E 000°10'0 0.0
2017-Aug-16 15:29N 49°27' E 000°10'0 0.0
2017-Aug-16 14:59N 49°27' E 000°10'0 0.0
2017-Aug-16 14:29N 49°27' E 000°10'0 0.0
2017-Aug-16 13:59N 49°27' E 000°10'0 0.0
2017-Aug-16 13:29N 49°27' E 000°10'0 0.0
2017-Aug-16 12:59N 49°27' E 000°10'0 0.0
2017-Aug-16 12:29N 49°27' E 000°10'0 0.0
2017-Aug-16 11:59N 49°27' E 000°10'0 0.0
2017-Aug-16 11:29N 49°27' E 000°10'0 0.0
2017-Aug-16 10:59N 49°27' E 000°10'0 0.0
2017-Aug-16 10:29N 49°27' E 000°10'0 0.0
2017-Aug-16 09:59N 49°27' E 000°10'0 0.1
2017-Aug-16 09:29N 49°27' E 000°10'0 0.0
2017-Aug-16 08:59N 49°27' E 000°10'0 0.0
2017-Aug-16 08:29N 49°27' E 000°10'0 0.1
2017-Aug-16 07:59N 49°27' E 000°10'0 0.0
2017-Aug-16 07:29N 49°27' E 000°10'0 0.0
2017-Aug-16 06:59N 49°27' E 000°10'0 0.0
2017-Aug-16 06:29N 49°27' E 000°10'0 0.0
2017-Aug-16 05:59N 49°27' E 000°10'0 0.0
2017-Aug-16 05:29N 49°27' E 000°10'0 0.0
2017-Aug-16 04:59N 49°27' E 000°10'0 0.0
2017-Aug-16 04:29N 49°27' E 000°10'0 0.0
2017-Aug-16 03:59N 49°27' E 000°10'0 0.0
2017-Aug-16 03:29N 49°27' E 000°10'0 0.0
2017-Aug-16 02:59N 49°27' E 000°10'0 0.0
2017-Aug-16 02:29N 49°27' E 000°10'0 0.0
2017-Aug-16 01:59N 49°27' E 000°10'0 0.0
2017-Aug-16 01:29N 49°27' E 000°10'0 0.0
2017-Aug-16 00:59N 49°27' E 000°10'0 0.0
2017-Aug-16 00:29N 49°27' E 000°10'0 0.0
2017-Aug-15 23:59N 49°27' E 000°10'0 0.0
2017-Aug-15 23:29N 49°27' E 000°10'0 0.0
2017-Aug-15 22:59N 49°27' E 000°10'0 0.1
2017-Aug-15 22:30N 49°27' E 000°10'1 2.8
2017-Aug-15 22:00N 49°28' E 000°08'4 8.4
2017-Aug-15 21:30N 49°30' E 000°02'3 5.9
2017-Aug-15 21:00N 49°31' W 000°02'3 5.8
2017-Aug-15 20:30N 49°32' W 000°06'4 8.5
2017-Aug-15 20:00N 49°33' W 000°13'4 8.8
2017-Aug-15 19:30N 49°34' W 000°19'510.4
2017-Aug-15 19:00N 49°36' W 000°27'510.0
2017-Aug-15 18:29N 49°39' W 000°33'1 1.8
2017-Aug-15 18:00N 49°40' W 000°33'1 1.3
2017-Aug-15 17:30N 49°40' W 000°32'3 5.5
2017-Aug-15 16:59N 49°43' W 000°32'613.3
2017-Aug-15 16:31N 49°49' W 000°35'713.1
2017-Aug-15 15:58N 49°56' W 000°36'813.1
2017-Aug-15 15:21N 50°04' W 000°38'1013.4
2017-Aug-15 14:37N 50°13' W 000°44'112.1
2017-Aug-15 14:30N 50°15' W 000°44'813.0
2017-Aug-15 13:53N 50°22' W 000°48'513.3
2017-Aug-15 13:30N 50°27' W 000°51'713.3
2017-Aug-15 13:00N 50°33' W 000°56'611.1
2017-Aug-15 12:31N 50°38' W 000°57'4 8.9
2017-Aug-15 12:01N 50°43' W 000°58'713.8
2017-Aug-15 11:31N 50°45' W 001°08'714.3
2017-Aug-15 11:01N 50°47' W 001°19'4 8.1
2017-Aug-15 10:30N 50°51' W 001°21'4 8.3
2017-Aug-15 10:00N 50°54' W 001°25'1 2.4
2017-Aug-15 09:30N 50°54' W 001°27'1 1.2
2017-Aug-15 09:00N 50°55' W 001°28'0 0.0
2017-Aug-15 07:42N 50°55' W 001°28'0 0.0
2017-Aug-15 07:24N 50°55' W 001°28'0 0.0
2017-Aug-15 05:57N 50°55' W 001°28'0 0.0
2017-Aug-15 05:30N 50°55' W 001°28'0 0.0
2017-Aug-15 05:00N 50°55' W 001°28'0 0.0
2017-Aug-15 04:24N 50°55' W 001°28'0 0.0
2017-Aug-15 04:00N 50°55' W 001°28'0 0.0
2017-Aug-15 03:30N 50°55' W 001°28'0 0.0
2017-Aug-15 01:45N 50°55' W 001°28'0 0.1
2017-Aug-15 01:30N 50°55' W 001°28'0 0.0
2017-Aug-15 01:00N 50°55' W 001°28'0 0.0
2017-Aug-15 00:30N 50°55' W 001°28'0 0.0
2017-Aug-14 23:54N 50°55' W 001°28'0 0.0
2017-Aug-14 23:30N 50°55' W 001°28'0 0.1
2017-Aug-14 23:00N 50°55' W 001°28'0 0.1
2017-Aug-14 22:30N 50°55' W 001°28'0 0.0
2017-Aug-14 21:54N 50°55' W 001°28'0 0.1
2017-Aug-14 21:30N 50°55' W 001°28'0 0.0
2017-Aug-14 20:57N 50°55' W 001°28'0 0.0
2017-Aug-14 20:30N 50°55' W 001°28'0 0.0
2017-Aug-14 20:00N 50°55' W 001°28'0 0.0
2017-Aug-14 19:27N 50°55' W 001°28'0 0.0
2017-Aug-14 18:00N 50°55' W 001°28'0 0.0
2017-Aug-14 15:36N 50°55' W 001°28'0 0.0
2017-Aug-14 15:30N 50°55' W 001°28'0 0.0
2017-Aug-14 15:00N 50°55' W 001°28'0 0.0
2017-Aug-14 14:27N 50°55' W 001°28'0 0.0
2017-Aug-14 14:00N 50°55' W 001°28'0 0.0
2017-Aug-14 13:30N 50°55' W 001°28'0 0.0
2017-Aug-14 13:00N 50°55' W 001°28'0 0.0
2017-Aug-14 12:30N 50°55' W 001°28'0 0.0
2017-Aug-14 12:00N 50°55' W 001°28'0 0.0
2017-Aug-14 11:27N 50°55' W 001°28'0 0.0
2017-Aug-14 11:00N 50°55' W 001°28'0 0.0
2017-Aug-14 10:30N 50°55' W 001°28'0 0.0
2017-Aug-14 10:00N 50°55' W 001°28'0 0.0
2017-Aug-14 09:30N 50°55' W 001°28'0 0.0
2017-Aug-14 09:00N 50°55' W 001°28'0 0.0
2017-Aug-14 08:30N 50°55' W 001°28'0 0.0
2017-Aug-14 05:36N 50°55' W 001°28'0 0.0
2017-Aug-14 05:15N 50°55' W 001°28'0 0.0
2017-Aug-14 01:45N 50°55' W 001°28'0 0.0
2017-Aug-14 01:30N 50°55' W 001°28'0 0.0
2017-Aug-14 00:12N 50°55' W 001°28'0 0.0
2017-Aug-14 00:00N 50°55' W 001°28'0 0.0
2017-Aug-13 23:30N 50°55' W 001°28'0 0.0
2017-Aug-13 23:00N 50°55' W 001°28'0 0.0
2017-Aug-13 22:30N 50°55' W 001°28'0 0.0
2017-Aug-13 22:00N 50°55' W 001°28'0 0.0
2017-Aug-13 20:24N 50°55' W 001°28'0 1.3
2017-Aug-13 20:00N 50°54' W 001°27'2 3.3
2017-Aug-13 19:30N 50°54' W 001°25'4 7.5
2017-Aug-13 19:00N 50°51' W 001°21'4 7.7
2017-Aug-13 18:30N 50°47' W 001°19'510.6
2017-Aug-13 18:01N 50°46' W 001°11'713.7
2017-Aug-13 17:30N 50°43' W 001°01'510.6
2017-Aug-13 17:00N 50°38' W 000°57'4 7.0
2017-Aug-13 16:30N 50°35' W 000°57'4 8.2
2017-Aug-13 16:00N 50°31' W 000°54'714.7
2017-Aug-13 15:30N 50°31' W 000°42'816.6
2017-Aug-13 15:01N 50°31' W 000°29'714.9
2017-Aug-13 14:30N 50°31' W 000°18'816.1
2017-Aug-13 14:00N 50°32' W 000°05'816.8
2017-Aug-13 13:31N 50°33' E 000°08'816.4
2017-Aug-13 13:00N 50°35' E 000°21'816.3
2017-Aug-13 12:30N 50°38' E 000°33'815.9
2017-Aug-13 12:00N 50°41' E 000°44'815.3
2017-Aug-13 11:30N 50°45' E 000°55'815.2
2017-Aug-13 11:00N 50°49' E 001°05'714.9
2017-Aug-13 10:30N 50°53' E 001°14'815.5
2017-Aug-13 10:00N 50°59' E 001°23'815.5
2017-Aug-13 09:30N 51°04' E 001°32'815.7
2017-Aug-13 09:00N 51°10' E 001°41'815.6
2017-Aug-13 08:31N 51°15' E 001°49'815.9
2017-Aug-13 08:00N 51°22' E 001°56'815.8
2017-Aug-13 07:31N 51°29' E 002°02'815.4
2017-Aug-13 07:00N 51°35' E 002°10'815.3
2017-Aug-13 06:30N 51°41' E 002°18'3714.4
2017-Aug-13 03:57N 52°09' E 002°56'8216.4
2017-Aug-12 22:59N 53°11' E 004°23'815.7
2017-Aug-12 22:30N 53°18' E 004°29'1814.8
2017-Aug-12 21:19N 53°31' E 004°49'814.8
2017-Aug-12 20:44N 53°35' E 005°02'314.4
2017-Aug-12 20:30N 53°36' E 005°08'714.4
2017-Aug-12 20:00N 53°38' E 005°19'714.7
2017-Aug-12 19:30N 53°40' E 005°31'9316.3
2017-Aug-12 13:48N 54°01' E 008°04'414.6
2017-Aug-12 13:30N 54°00' E 008°12'612.1
2017-Aug-12 13:00N 53°60' E 008°22'713.0
2017-Aug-12 12:30N 53°58' E 008°33'612.2
2017-Aug-12 12:01N 53°55' E 008°41'511.0
2017-Aug-12 11:30N 53°51' E 008°47'714.6
2017-Aug-12 11:00N 53°51' E 008°60'612.1
2017-Aug-12 10:30N 53°53' E 009°10'713.3
2017-Aug-12 10:00N 53°51' E 009°20'815.3
2017-Aug-12 09:30N 53°44' E 009°27'612.4
2017-Aug-12 09:01N 53°38' E 009°31'713.2
2017-Aug-12 08:30N 53°34' E 009°40'611.8
2017-Aug-12 08:01N 53°33' E 009°50'4 8.2
2017-Aug-12 07:30N 53°32' E 009°56'1 2.5
2017-Aug-12 07:00N 53°31' E 009°56'0 0.0
2017-Aug-12 06:30N 53°31' E 009°56'0 0.0
2017-Aug-12 06:00N 53°31' E 009°56'0 0.0
2017-Aug-12 05:30N 53°31' E 009°56'0 0.0
2017-Aug-12 05:00N 53°31' E 009°56'0 0.0
2017-Aug-12 04:30N 53°31' E 009°56'0 0.0
2017-Aug-12 04:00N 53°31' E 009°56'0 0.0
2017-Aug-12 03:30N 53°31' E 009°56'0 0.0
2017-Aug-12 03:00N 53°31' E 009°56'0 0.0
2017-Aug-12 02:30N 53°31' E 009°56'0 0.0
2017-Aug-12 02:00N 53°31' E 009°56'0 0.0
2017-Aug-12 01:30N 53°31' E 009°56'0 0.0
2017-Aug-12 01:00N 53°31' E 009°56'0 0.0
2017-Aug-12 00:30N 53°31' E 009°56'0 0.0
2017-Aug-12 00:00N 53°31' E 009°56'0 0.0
2017-Aug-11 23:30N 53°31' E 009°56'0 0.0
2017-Aug-11 23:00N 53°31' E 009°56'0 0.0
2017-Aug-11 22:30N 53°31' E 009°56'  

Dump ship's entire track history